CheckWX is a tool to help pilots better visualize weather data.  It is not intended as a substitute for an official pre-flight weather briefing.

14:13:15 UTC

PAGY TAF
Skagway Airport
Skagway, Alaska, USA
PAGY 311122Z 3112/0112 03017G30KT P6SM SKC FM010300 03010KT P6SM SKC AMD LTD TO CLD VIS AND WIND

Mar-31@
12:00 UTC

Mar-31 @ 12:00 UTC

Apr-1@
03:00 UTC

Apr-1 @ 03:00 UTC

TAF PAGY 311122Z 3112/0112 03017G30KT P6SM SKC
Wind
  • 030° at 17 KTS
  • {Gusting to 30 KTS
Cloud Levels
  • Clear skies

Apr-1@
03:00 UTC

Apr-1 @ 03:00 UTC

Apr-1@
12:00 UTC

Apr-1 @ 12:00 UTC

FM010300 03010KT P6SM SKC AMD LTD TO CLD VIS AND WIND

From

From Standard forecast or significant change

Wind
  • 030° at 10 KTS
Cloud Levels
  • Clear skies